Time;durP1;ratioP1;P1;durP2;ratioP2;P2;SDS_P1;SDS_P2;PMS_P1;PMS_P2;Temp;Humidity;BMP_temperature;BMP_pressure;BME280_temperature;BME280_humidity;BME280_pressure;Samples;Min_cycle;Max_cycle;Signal;HPM_P1;HPM_P2
2024/01/29 00:01:44;;;;;;;0.80;0.80;;;;;;;0.42;81.68;101716.31;5096399;28;20047;-76
2024/01/29 00:04:13;;;;;;;2.35;1.63;;;;;;;0.38;82.07;101714.34;5096450;28;20055;-77
2024/01/29 00:06:42;;;;;;;0.45;0.45;;;;;;;0.30;81.90;101717.94;5095297;28;20048;-77
2024/01/29 00:09:11;;;;;;;0.50;0.50;;;;;;;0.28;81.57;101716.94;5096599;28;20431;-77
2024/01/29 00:11:40;;;;;;;1.00;0.90;;;;;;;0.28;81.43;101727.88;5095434;28;20038;-77
2024/01/29 00:14:09;;;;;;;2.72;1.73;;;;;;;0.28;81.48;101719.47;5096442;28;20277;-77
2024/01/29 00:16:38;;;;;;;1.40;1.23;;;;;;;0.36;81.85;101728.44;5096174;28;20048;-77
2024/01/29 00:19:08;;;;;;;0.90;0.90;;;;;;;0.39;81.74;101734.53;5096424;28;20101;-77
2024/01/29 00:21:38;;;;;;;2.15;1.38;;;;;;;0.36;81.58;101730.94;5096377;28;20068;-77
2024/01/29 00:24:07;;;;;;;0.65;0.65;;;;;;;0.40;81.68;101733.78;5096298;28;20043;-77
2024/01/29 00:26:39;;;;;;;0.47;0.47;;;;;;;0.41;81.83;101739.66;5094981;28;20502;-77
2024/01/29 00:29:08;;;;;;;2.30;1.48;;;;;;;0.47;82.00;101740.13;5095921;28;20040;-77
2024/01/29 00:31:37;;;;;;;0.52;0.52;;;;;;;0.48;81.42;101746.91;5096167;28;20040;-77
2024/01/29 00:34:06;;;;;;;1.20;1.10;;;;;;;0.48;81.52;101754.44;5094800;28;20036;-77
2024/01/29 00:36:36;;;;;;;0.60;0.60;;;;;;;0.46;81.43;101758.44;5094612;28;20036;-77
2024/01/29 00:39:09;;;;;;;1.00;0.63;;;;;;;0.47;81.61;101751.03;5095323;28;20047;-77
2024/01/29 00:41:38;;;;;;;0.82;0.82;;;;;;;0.43;81.15;101754.06;5094763;28;20047;-77
2024/01/29 00:44:06;;;;;;;1.80;1.70;;;;;;;0.41;81.63;101755.59;5095834;28;20406;-77
2024/01/29 00:46:40;;;;;;;6.32;4.25;;;;;;;0.25;81.30;101736.81;5096136;28;20677;-77
2024/01/29 00:49:09;;;;;;;0.35;0.35;;;;;;;0.33;81.56;101755.81;5095590;28;20089;-77
2024/01/29 00:51:39;;;;;;;1.50;1.40;;;;;;;0.21;81.40;101764.97;5096187;28;20470;-77
2024/01/29 00:54:08;;;;;;;1.88;1.23;;;;;;;0.04;81.02;101755.31;5095724;28;20039;-77
2024/01/29 00:56:37;;;;;;;0.70;0.70;;;;;;;0.08;81.23;101759.78;5096001;28;20028;-77
2024/01/29 00:59:06;;;;;;;0.70;0.70;;;;;;;-0.01;80.84;101750.84;5094308;28;20071;-77
2024/01/29 01:01:35;;;;;;;0.40;0.40;;;;;;;0.02;81.05;101766.88;5094409;28;20052;-77
2024/01/29 01:04:04;;;;;;;1.10;1.08;;;;;;;-0.10;80.81;101772.72;5095172;28;20119;-77
2024/01/29 01:06:33;;;;;;;2.17;1.67;;;;;;;-0.17;80.71;101765.50;5094212;28;20090;-77
2024/01/29 01:09:04;;;;;;;0.45;0.45;;;;;;;-0.22;80.84;101765.94;5093848;28;20044;-77
2024/01/29 01:11:33;;;;;;;0.45;0.45;;;;;;;-0.23;81.24;101760.03;5095400;28;20486;-77
2024/01/29 01:14:02;;;;;;;0.73;0.73;;;;;;;-0.23;80.97;101760.03;5093991;28;20048;-77
2024/01/29 01:16:31;;;;;;;1.17;1.03;;;;;;;-0.30;81.30;101756.94;5094015;28;20097;-77
2024/01/29 01:19:00;;;;;;;0.30;0.30;;;;;;;-0.27;81.31;101763.06;5095328;28;20046;-77
2024/01/29 01:21:29;;;;;;;3.75;2.70;;;;;;;-0.39;80.79;101734.56;5093901;28;20149;-77
2024/01/29 01:23:58;;;;;;;0.93;0.93;;;;;;;-0.32;81.25;101754.31;5095392;28;20139;-77
2024/01/29 01:26:28;;;;;;;1.60;1.30;;;;;;;-0.30;81.52;101747.78;5095149;28;20332;-76
2024/01/29 01:28:57;;;;;;;1.67;1.58;;;;;;;-0.39;81.14;101757.13;5094625;28;20055;-77
2024/01/29 01:31:26;;;;;;;0.98;0.98;;;;;;;-0.45;81.29;101751.63;5094802;28;20040;-77
2024/01/29 01:33:56;;;;;;;2.08;1.88;;;;;;;-0.40;81.36;101749.47;5094751;28;20127;-77
2024/01/29 01:36:25;;;;;;;1.33;1.23;;;;;;;-0.48;81.19;101745.53;5094974;28;20044;-77
2024/01/29 01:38:55;;;;;;;0.30;0.30;;;;;;;-0.49;81.32;101749.66;5094879;28;20126;-77
2024/01/29 01:41:24;;;;;;;3.63;2.45;;;;;;;-0.44;81.57;101748.38;5094688;28;20132;-77
2024/01/29 01:43:54;;;;;;;0.65;0.65;;;;;;;-0.46;81.66;101734.84;5093510;28;20047;-77
2024/01/29 01:46:24;;;;;;;1.65;1.55;;;;;;;-0.52;81.24;101738.50;5094721;28;20044;-77
2024/01/29 01:48:55;;;;;;;1.55;1.45;;;;;;;-0.63;81.56;101739.31;5110435;28;20040;-77
2024/01/29 01:51:24;;;;;;;0.77;0.77;;;;;;;-0.59;81.63;101732.16;5094448;28;20044;-76
2024/01/29 01:53:55;;;;;;;2.03;1.85;;;;;;;-0.63;81.58;101730.19;5092815;28;20044;-77
2024/01/29 01:56:25;;;;;;;3.60;1.70;;;;;;;-0.58;81.63;101731.41;5094541;28;20047;-77
2024/01/29 01:58:58;;;;;;;2.05;1.73;;;;;;;-0.62;81.73;101736.94;5093355;28;20036;-77
2024/01/29 02:01:28;;;;;;;1.85;1.75;;;;;;;-0.61;81.82;101738.69;5094791;28;20501;-77
2024/01/29 02:03:58;;;;;;;1.58;0.95;;;;;;;-0.56;82.02;101732.41;5094182;28;20036;-77
2024/01/29 02:06:27;;;;;;;1.08;1.02;;;;;;;-0.65;81.80;101716.66;5094278;28;20120;-77
2024/01/29 02:08:56;;;;;;;1.08;1.02;;;;;;;-0.61;81.79;101723.66;5093959;28;20036;-77
2024/01/29 02:11:25;;;;;;;2.33;1.98;;;;;;;-0.73;81.64;101735.25;5094422;28;20044;-77
2024/01/29 02:13:56;;;;;;;1.67;1.58;;;;;;;-0.79;81.72;101728.13;5094292;28;20131;-77
2024/01/29 02:16:25;;;;;;;1.40;1.30;;;;;;;-0.86;81.60;101735.91;5094213;28;20121;-77
2024/01/29 02:18:54;;;;;;;0.43;0.43;;;;;;;-0.93;81.67;101735.31;5094198;28;20040;-76
2024/01/29 02:21:23;;;;;;;4.97;1.40;;;;;;;-0.84;82.08;101733.56;5094415;28;20032;-76
2024/01/29 02:23:54;;;;;;;2.40;1.98;;;;;;;-0.81;81.84;101736.28;5093115;28;20040;-76
2024/01/29 02:26:23;;;;;;;3.15;1.70;;;;;;;-0.95;81.92;101731.84;5093552;28;20048;-76
2024/01/29 02:28:52;;;;;;;0.63;0.63;;;;;;;-0.91;81.98;101727.16;5092275;28;20048;-76
2024/01/29 02:31:21;;;;;;;1.67;1.58;;;;;;;-1.00;81.80;101725.59;5092775;28;20063;-76
2024/01/29 02:33:49;;;;;;;0.63;0.63;;;;;;;-1.06;81.67;101725.13;5093873;28;20036;-76
2024/01/29 02:36:18;;;;;;;0.32;0.32;;;;;;;-1.07;81.83;101728.38;5092314;28;20154;-76
2024/01/29 02:38:49;;;;;;;0.73;0.60;;;;;;;-1.05;81.95;101732.75;5093199;28;20040;-76
2024/01/29 02:41:19;;;;;;;0.20;0.20;;;;;;;-0.94;82.17;101726.06;5093802;28;20047;-76
2024/01/29 02:43:49;;;;;;;0.82;0.82;;;;;;;-0.83;82.11;101720.25;5093623;28;20429;-76
2024/01/29 02:46:18;;;;;;;0.77;0.77;;;;;;;-0.79;82.19;101713.09;5093599;28;20509;-76
2024/01/29 02:48:47;;;;;;;0.30;0.30;;;;;;;-0.76;82.20;101713.31;5094194;28;20044;-76
2024/01/29 02:51:16;;;;;;;;;;;;;;;-0.88;82.09;101724.03;5094257;28;20138;-76
2024/01/29 02:53:45;;;;;;;3.38;3.08;;;;;;;-0.93;82.18;101732.81;5094449;28;20383;-76
2024/01/29 02:56:13;;;;;;;3.37;1.33;;;;;;;-0.85;82.10;101729.28;5093554;28;20119;-76
2024/01/29 02:58:44;;;;;;;0.65;0.65;;;;;;;-0.89;82.17;101729.81;5093567;28;20040;-76
2024/01/29 03:01:13;;;;;;;1.00;0.93;;;;;;;-0.90;82.28;101733.06;5095371;28;20048;-76
2024/01/29 03:03:42;;;;;;;0.43;0.43;;;;;;;-0.90;82.24;101728.06;5097632;28;20552;-76
2024/01/29 03:06:11;;;;;;;1.10;1.02;;;;;;;-0.80;82.18;101738.03;5096317;28;20402;-76
2024/01/29 03:08:40;;;;;;;0.40;0.40;;;;;;;-0.87;82.26;101739.19;5079744;28;20062;-76
2024/01/29 03:11:08;;;;;;;0.57;0.57;;;;;;;-0.92;82.13;101742.09;5097577;28;20032;-76
2024/01/29 03:13:37;;;;;;;1.10;1.08;;;;;;;-0.93;82.35;101752.88;5097721;28;20036;-76
2024/01/29 03:16:08;;;;;;;1.42;1.33;;;;;;;-0.98;81.87;101749.13;5097302;28;20032;-76
2024/01/29 03:18:37;;;;;;;0.40;0.40;;;;;;;-1.02;82.01;101737.13;5097459;28;20043;-76
2024/01/29 03:21:06;;;;;;;0.22;0.22;;;;;;;-1.10;82.19;101723.13;5097863;28;20039;-76
2024/01/29 03:23:35;;;;;;;0.55;0.55;;;;;;;-1.08;81.76;101736.66;5112631;28;20047;-76
2024/01/29 03:26:04;;;;;;;0.90;0.90;;;;;;;-1.08;81.68;101734.16;5096549;28;20043;-76
2024/01/29 03:28:33;;;;;;;0.90;0.90;;;;;;;-1.13;81.93;101735.41;5096883;28;20044;-76
2024/01/29 03:31:02;;;;;;;0.30;0.30;;;;;;;-1.12;81.79;101734.66;5097401;28;20060;-76
2024/01/29 03:33:32;;;;;;;2.45;2.25;;;;;;;-1.11;81.79;101736.41;5096133;28;20058;-76
2024/01/29 03:36:04;;;;;;;0.45;0.45;;;;;;;-1.11;81.54;101726.41;5096951;28;20040;-76
2024/01/29 03:38:33;;;;;;;0.77;0.77;;;;;;;-1.06;81.76;101735.16;5097241;28;20558;-76
2024/01/29 03:41:02;;;;;;;1.75;1.65;;;;;;;-1.01;81.58;101743.91;5097171;28;20093;-76
2024/01/29 03:43:31;;;;;;;2.90;2.17;;;;;;;-0.94;81.91;101741.13;5097393;28;20040;-76
2024/01/29 03:46:00;;;;;;;1.65;1.55;;;;;;;-0.99;82.00;101738.25;5097110;28;20127;-76
2024/01/29 03:48:29;;;;;;;1.50;0.93;;;;;;;-1.03;81.82;101730.38;5097130;28;20569;-76
2024/01/29 03:51:00;;;;;;;0.75;0.75;;;;;;;-0.98;82.06;101731.59;5097000;28;20081;-76
2024/01/29 03:53:29;;;;;;;0.40;0.40;;;;;;;-0.96;82.21;101713.41;5096985;28;20036;-76
2024/01/29 03:55:57;;;;;;;0.43;0.43;;;;;;;-1.02;82.15;101704.56;5078739;28;20379;-76
2024/01/29 03:58:27;;;;;;;6.70;2.92;;;;;;;-0.99;82.03;101714.81;5095708;28;20122;-76
2024/01/29 04:00:56;;;;;;;3.05;2.00;;;;;;;-1.02;82.31;101720.47;5095330;28;20048;-76
2024/01/29 04:03:26;;;;;;;0.60;0.60;;;;;;;-0.97;82.33;101721.69;5096077;28;20478;-76
2024/01/29 04:05:55;;;;;;;1.42;1.33;;;;;;;-0.92;82.24;101734.59;5112326;28;20039;-76
2024/01/29 04:08:25;;;;;;;;;;;;;;;-0.92;82.35;101734.59;5097426;28;20040;-76
2024/01/29 04:10:54;;;;;;;0.40;0.40;;;;;;;-0.87;82.45;101738.31;5096359;28;19927;-76
2024/01/29 04:13:24;;;;;;;0.30;0.30;;;;;;;-0.92;82.21;101734.59;5094168;28;20072;-76
2024/01/29 04:15:53;;;;;;;0.98;0.98;;;;;;;-0.97;82.05;101728.34;5095288;28;20046;-76
2024/01/29 04:18:23;;;;;;;20.13;2.70;;;;;;;-1.11;82.32;101717.25;5096355;28;20067;-76
2024/01/29 04:20:52;;;;;;;0.95;0.95;;;;;;;-1.10;82.33;101713.09;5096254;28;20036;-76
2024/01/29 04:23:20;;;;;;;0.30;0.30;;;;;;;-1.10;82.21;101701.44;5096303;28;20063;-76
2024/01/29 04:25:51;;;;;;;2.00;1.43;;;;;;;-1.31;82.07;101687.25;5096362;28;20036;-76
2024/01/29 04:28:20;;;;;;;0.20;0.20;;;;;;;-1.21;82.05;101698.88;5094688;28;20052;-76
2024/01/29 04:30:48;;;;;;;0.80;0.80;;;;;;;-1.16;82.19;101697.59;5096168;28;20402;-76
2024/01/29 04:33:17;;;;;;;0.40;0.40;;;;;;;-1.19;82.11;101698.22;5096099;28;20101;-76
2024/01/29 04:35:46;;;;;;;1.60;1.50;;;;;;;-1.15;82.16;101704.38;5095642;28;20089;-75
2024/01/29 04:38:15;;;;;;;0.93;0.90;;;;;;;-1.13;82.19;101702.84;5096084;28;20037;-76
2024/01/29 04:40:44;;;;;;;4.73;3.43;;;;;;;-1.06;82.22;101692.56;5095996;28;20144;-76
2024/01/29 04:43:15;;;;;;;0.60;0.60;;;;;;;-1.09;82.30;101699.81;5094378;28;20635;-76
2024/01/29 04:45:44;;;;;;;0.50;0.50;;;;;;;-1.19;82.48;101699.84;5095876;28;20044;-76
2024/01/29 04:48:12;;;;;;;3.17;2.93;;;;;;;-1.20;82.19;101709.00;5096113;28;20417;-75
2024/01/29 04:50:41;;;;;;;11.50;1.55;;;;;;;-1.37;82.06;101697.66;5094396;28;20281;-76
2024/01/29 04:53:10;;;;;;;1.55;1.45;;;;;;;-1.23;82.22;101720.41;5077380;28;20135;-76
2024/01/29 04:55:39;;;;;;;0.40;0.40;;;;;;;-1.27;82.08;101724.31;5095433;28;20367;-76
2024/01/29 04:58:08;;;;;;;1.25;1.15;;;;;;;-1.39;82.39;101720.81;5095326;28;20048;-76
2024/01/29 05:00:38;;;;;;;0.68;0.68;;;;;;;-1.34;82.06;101731.25;5095410;28;20036;-76
2024/01/29 05:03:07;;;;;;;0.45;0.45;;;;;;;-1.44;82.09;101739.66;5095223;28;20048;-76
2024/01/29 05:05:36;;;;;;;3.63;3.13;;;;;;;-1.52;81.85;101741.53;5095561;28;20036;-76
2024/01/29 05:08:06;;;;;;;5.40;2.80;;;;;;;-1.42;82.14;101741.50;5095855;28;20036;-76
2024/01/29 05:10:34;;;;;;;0.50;0.50;;;;;;;-1.53;82.04;101751.41;5093938;28;20292;-76
2024/01/29 05:13:05;;;;;;;0.55;0.55;;;;;;;-1.58;82.25;101745.16;5095402;28;20079;-76
2024/01/29 05:15:35;;;;;;;0.40;0.40;;;;;;;-1.65;81.97;101748.81;5094887;28;20481;-76
2024/01/29 05:18:05;;;;;;;0.40;0.40;;;;;;;-1.63;82.31;101761.47;5095283;28;20095;-76
2024/01/29 05:20:35;;;;;;;2.20;1.15;;;;;;;-1.63;82.31;101756.44;5094912;28;20071;-78
2024/01/29 05:23:04;;;;;;;1.30;1.20;;;;;;;-1.68;82.37;101758.56;5094979;28;20032;-78
2024/01/29 05:25:33;;;;;;;2.05;1.92;;;;;;;-1.76;82.30;101759.59;5095174;28;20040;-77
2024/01/29 05:28:02;;;;;;;3.15;2.85;;;;;;;-1.73;81.95;101757.34;5093547;28;20048;-77
2024/01/29 05:30:31;;;;;;;6.03;2.72;;;;;;;-1.69;82.19;101766.84;5095134;28;20028;-78
2024/01/29 05:33:00;;;;;;;2.35;2.15;;;;;;;-1.78;82.16;101776.09;5094946;28;20102;-77
2024/01/29 05:35:50;;;;;;;1.00;1.00;;;;;;;-1.88;82.03;101773.59;5093497;28;20405;-78
2024/01/29 05:38:20;;;;;;;3.17;2.88;;;;;;;-1.83;81.94;101782.34;5110646;28;20044;-78
2024/01/29 05:40:49;;;;;;;1.55;0.95;;;;;;;-1.81;82.06;101760.84;5093772;28;20097;-78
2024/01/29 05:43:18;;;;;;;2.90;2.65;;;;;;;-1.74;82.01;101767.19;5093140;28;20134;-77
2024/01/29 05:45:47;;;;;;;7.28;6.65;;;;;;;-1.77;82.11;101762.81;5110505;28;20040;-78
2024/01/29 05:48:17;;;;;;;28.52;8.02;;;;;;;-1.80;82.12;101762.56;5093548;28;20139;-78
2024/01/29 05:50:46;;;;;;;0.98;0.93;;;;;;;-1.78;81.99;101761.09;5094510;28;20102;-77
2024/01/29 05:53:20;;;;;;;10.20;6.93;;;;;;;-1.73;81.79;101754.84;5093315;28;20044;-77
2024/01/29 05:55:49;;;;;;;7.13;5.10;;;;;;;-1.64;82.09;101759.69;5110321;28;20058;-78
2024/01/29 05:58:17;;;;;;;2.80;2.60;;;;;;;-1.81;82.13;101747.44;5094810;28;20047;-78
2024/01/29 06:00:46;;;;;;;5.70;4.00;;;;;;;-1.73;81.83;101766.47;5094749;28;20043;-79
2024/01/29 06:03:16;;;;;;;7.72;3.55;;;;;;;-1.67;82.16;101764.44;5094458;28;20476;-77
2024/01/29 06:05:45;;;;;;;8.40;6.40;;;;;;;-1.73;82.02;101767.34;5094390;28;20513;-78
2024/01/29 06:08:14;;;;;;;6.77;5.40;;;;;;;-1.78;82.28;101765.22;5094887;28;20513;-77
2024/01/29 06:10:45;;;;;;;9.63;5.40;;;;;;;-1.70;82.14;101760.06;5094468;28;20280;-78
2024/01/29 06:13:16;;;;;;;4.50;4.10;;;;;;;-1.80;82.57;101761.72;5094285;28;20074;-77
2024/01/29 06:15:45;;;;;;;4.32;3.25;;;;;;;-1.79;82.49;101764.31;5092319;28;20101;-77
2024/01/29 06:18:14;;;;;;;11.77;5.88;;;;;;;-1.73;82.47;101771.47;5093803;28;20036;-77
2024/01/29 06:20:43;;;;;;;3.17;2.55;;;;;;;-1.75;82.76;101770.47;5084447;28;20086;-77
2024/01/29 06:23:14;;;;;;;1.63;1.52;;;;;;;-1.74;82.48;101768.09;5089496;28;20036;-77
2024/01/29 06:25:45;;;;;;;7.15;2.65;;;;;;;-1.86;82.75;101762.09;5092367;28;20093;-78
2024/01/29 06:28:14;;;;;;;3.10;2.05;;;;;;;-1.82;82.59;101779.09;5073548;28;20048;-78
2024/01/29 06:30:42;;;;;;;1.77;1.67;;;;;;;-1.79;82.41;101786.84;5072423;28;20040;-78
2024/01/29 06:33:12;;;;;;;7.03;3.40;;;;;;;-1.74;82.69;101778.09;5073587;28;20051;-78
2024/01/29 06:35:41;;;;;;;3.25;2.63;;;;;;;-1.67;82.87;101782.84;5072051;28;20058;-77
2024/01/29 06:38:10;;;;;;;2.33;2.00;;;;;;;-1.99;82.85;101718.44;5073723;28;20047;-78
2024/01/29 06:40:41;;;;;;;3.15;2.85;;;;;;;-1.60;82.80;101787.59;5073643;28;20131;-77
2024/01/29 06:43:12;;;;;;;1.95;1.85;;;;;;;-1.58;82.47;101791.09;5072313;28;20081;-78
2024/01/29 06:45:41;;;;;;;1.85;1.75;;;;;;;-1.52;82.64;101793.22;5073271;28;20045;-77
2024/01/29 06:48:11;;;;;;;2.90;2.60;;;;;;;-1.45;82.75;101788.84;5073435;28;20075;-78
2024/01/29 06:50:40;;;;;;;2.65;2.45;;;;;;;-1.46;82.84;101777.06;5089728;28;20040;-77
2024/01/29 06:53:09;;;;;;;4.68;2.83;;;;;;;-1.25;82.80;101789.56;4778112;22;22142;-70
2024/01/29 06:55:39;;;;;;;0.60;0.60;;;;;;;-1.18;82.82;101800.19;5073142;28;20044;-70
2024/01/29 06:58:08;;;;;;;2.33;2.13;;;;;;;-0.91;82.85;101801.50;5073038;28;20126;-70
2024/01/29 07:00:38;;;;;;;2.00;1.20;;;;;;;-0.46;83.33;101807.59;5073307;28;20110;-70
2024/01/29 07:03:07;;;;;;;3.40;1.88;;;;;;;-0.09;83.12;101798.69;5073155;28;20040;-69
2024/01/29 07:05:36;;;;;;;2.33;2.20;;;;;;;0.06;82.93;101804.00;5072370;28;20045;-69
2024/01/29 07:08:06;;;;;;;0.88;0.88;;;;;;;0.13;82.45;101812.09;5073504;28;20090;-70
2024/01/29 07:10:34;;;;;;;2.78;1.67;;;;;;;0.12;82.06;101815.34;5073277;28;20108;-69
2024/01/29 07:13:03;;;;;;;2.33;1.95;;;;;;;0.00;82.26;101825.34;5073378;28;20036;-69
2024/01/29 07:15:32;;;;;;;0.50;0.50;;;;;;;0.05;82.10;101828.22;5073407;28;20044;-69
2024/01/29 07:18:03;;;;;;;3.07;2.77;;;;;;;0.02;82.26;101824.59;5073249;28;20489;-69
2024/01/29 07:20:38;;;;;;;1.85;1.75;;;;;;;0.04;82.34;101815.56;5073384;28;20555;-69
2024/01/29 07:23:07;;;;;;;1.95;1.83;;;;;;;0.11;81.90;101817.75;5073306;28;20056;-69
2024/01/29 07:25:38;;;;;;;;;;;;;;;0.30;82.43;101823.38;5073757;28;20091;-69
2024/01/29 07:28:07;;;;;;;3.38;3.08;;;;;;;0.39;81.95;101824.06;5073264;28;19983;-70
2024/01/29 07:30:36;;;;;;;1.42;1.30;;;;;;;0.40;82.33;101823.31;5073201;28;20036;-68
2024/01/29 07:33:07;;;;;;;3.93;3.63;;;;;;;0.35;81.96;101834.66;5072921;28;20044;-69
2024/01/29 07:35:36;;;;;;;3.88;3.15;;;;;;;0.56;82.20;101828.69;5073220;28;20136;-68
2024/01/29 07:38:05;;;;;;;8.13;3.63;;;;;;;0.65;82.52;101831.88;5073167;28;20044;-68
2024/01/29 07:40:34;;;;;;;0.80;0.80;;;;;;;0.63;82.16;101829.25;5073156;28;20439;-68
2024/01/29 07:43:03;;;;;;;3.90;3.58;;;;;;;0.68;82.15;101838.00;5072905;28;20547;-68
2024/01/29 07:45:32;;;;;;;3.00;1.25;;;;;;;0.78;82.82;101834.53;5073364;28;20037;-68
2024/01/29 07:48:03;;;;;;;0.97;0.93;;;;;;;0.82;82.99;101841.50;5073979;28;20494;-68
2024/01/29 07:50:36;;;;;;;4.53;1.73;;;;;;;0.85;82.14;101840.88;5076736;28;20083;-68
2024/01/29 07:53:05;;;;;;;2.15;1.95;;;;;;;0.85;82.60;101840.88;5076469;28;20044;-69
2024/01/29 07:55:36;;;;;;;2.35;1.98;;;;;;;0.83;82.20;101838.25;5076800;28;20040;-68
2024/01/29 07:58:08;;;;;;;5.55;2.97;;;;;;;0.85;82.52;101841.75;5076835;28;20044;-68
2024/01/29 08:00:37;;;;;;;1.83;1.73;;;;;;;0.81;81.96;101839.78;5076529;28;20044;-68
2024/01/29 08:03:07;;;;;;;1.25;1.17;;;;;;;0.85;82.77;101841.75;5076526;28;20071;-67
2024/01/29 08:05:38;;;;;;;4.70;4.03;;;;;;;0.84;82.20;101836.63;5076458;28;20044;-67
2024/01/29 08:08:07;;;;;;;2.55;2.35;;;;;;;0.79;82.09;101836.28;5076454;28;20132;-67
2024/01/29 08:10:36;;;;;;;4.35;2.90;;;;;;;0.79;82.48;101833.78;5076387;28;20039;-67
2024/01/29 08:13:05;;;;;;;0.77;0.77;;;;;;;0.87;82.37;101830.16;5076027;28;20032;-67
2024/01/29 08:15:33;;;;;;;2.27;2.07;;;;;;;0.87;82.69;101830.16;5074987;28;20281;-67
2024/01/29 08:18:02;;;;;;;1.57;1.47;;;;;;;0.78;82.73;101827.00;5076264;28;20363;-67
2024/01/29 08:20:31;;;;;;;3.28;1.40;;;;;;;0.83;82.83;101828.19;5076144;28;20758;-67
2024/01/29 08:23:02;;;;;;;2.60;2.30;;;;;;;0.87;82.60;101825.13;5076076;28;20055;-67
2024/01/29 08:25:31;;;;;;;1.73;1.63;;;;;;;0.95;83.34;101829.09;5075773;28;20505;-67
2024/01/29 08:28:00;;;;;;;2.65;2.45;;;;;;;1.04;82.88;101829.75;5076060;28;20051;-67
2024/01/29 08:30:28;;;;;;;2.25;2.05;;;;;;;1.11;83.18;101839.47;5075939;28;20032;-67
2024/01/29 08:32:57;;;;;;;0.93;0.93;;;;;;;1.15;83.01;101838.91;5075601;28;20127;-67
2024/01/29 08:35:26;;;;;;;2.58;2.38;;;;;;;1.19;82.88;101838.38;5074592;28;20039;-67
2024/01/29 08:37:55;;;;;;;1.92;1.83;;;;;;;1.20;83.33;101842.63;5075830;28;20036;-67
2024/01/29 08:40:25;;;;;;;5.15;4.13;;;;;;;1.25;82.70;101847.97;5075787;28;20462;-67
2024/01/29 08:42:54;;;;;;;1.70;1.60;;;;;;;1.28;83.27;101841.53;5075845;28;20063;-67
2024/01/29 08:45:23;;;;;;;1.57;1.30;;;;;;;1.39;83.43;101838.91;5076038;28;20098;-66
2024/01/29 08:47:51;;;;;;;1.93;1.40;;;;;;;1.46;83.30;101847.00;5075393;28;20380;-67
2024/01/29 08:50:20;;;;;;;2.28;2.13;;;;;;;1.56;83.16;101844.34;5074968;28;20130;-67
2024/01/29 08:52:49;;;;;;;3.73;1.97;;;;;;;1.63;83.76;101845.66;5075415;28;20033;-67
2024/01/29 08:55:18;;;;;;;1.90;1.15;;;;;;;1.70;82.80;101842.78;5075163;28;20281;-68
2024/01/29 08:57:48;;;;;;;1.33;1.23;;;;;;;1.79;82.86;101833.34;5073932;28;20040;-69
2024/01/29 09:00:18;;;;;;;5.63;2.55;;;;;;;1.75;83.58;101827.22;5074735;28;20489;-68
2024/01/29 09:02:48;;;;;;;2.08;1.95;;;;;;;1.77;83.73;101827.34;5074157;28;20097;-66
2024/01/29 09:05:18;;;;;;;4.47;2.45;;;;;;;1.91;83.36;101829.16;5075237;28;20052;-67
2024/01/29 09:07:46;;;;;;;2.97;2.78;;;;;;;2.03;82.82;101837.53;5075353;28;20040;-67
2024/01/29 09:10:15;;;;;;;1.13;1.10;;;;;;;2.06;83.58;101835.25;5075327;28;20082;-67
2024/01/29 09:12:45;;;;;;;1.02;1.02;;;;;;;2.14;82.98;101825.66;5075468;28;20068;-67
2024/01/29 09:15:15;;;;;;;3.47;3.17;;;;;;;2.24;83.14;101826.38;5075396;28;20041;-67
2024/01/29 09:17:44;;;;;;;2.28;2.08;;;;;;;2.30;83.09;101824.28;5073607;28;20611;-67
2024/01/29 09:20:15;;;;;;;2.90;1.48;;;;;;;2.28;82.87;101825.81;5075137;28;20040;-68
2024/01/29 09:22:44;;;;;;;6.72;2.13;;;;;;;2.38;83.04;101820.63;5073378;28;20148;-68
2024/01/29 09:25:24;;;;;;;;;;;;;;;2.41;83.03;101825.88;5075054;28;20046;-67
2024/01/29 09:27:52;;;;;;;2.10;1.52;;;;;;;2.51;83.24;101833.25;5074915;28;19943;-66
2024/01/29 09:30:23;;;;;;;4.15;1.45;;;;;;;2.52;82.45;101835.00;5074577;28;20143;-68
2024/01/29 09:32:51;;;;;;;0.50;0.50;;;;;;;2.51;81.91;101833.25;5074608;28;20067;-65
2024/01/29 09:35:30;;;;;;;3.67;3.38;;;;;;;2.65;82.35;101826.59;5075089;28;20501;-68
2024/01/29 09:37:59;;;;;;;0.90;0.90;;;;;;;2.75;82.37;101835.63;5075012;28;20086;-67
2024/01/29 09:40:28;;;;;;;2.13;1.92;;;;;;;2.82;81.89;101836.13;5074657;28;20440;-66
2024/01/29 09:42:57;;;;;;;1.03;0.97;;;;;;;2.91;81.82;101833.31;5074576;28;20123;-68
2024/01/29 09:45:29;;;;;;;0.70;0.70;;;;;;;3.00;82.02;101833.91;5074335;28;20397;-68
2024/01/29 09:48:00;;;;;;;1.38;1.25;;;;;;;3.06;81.71;101834.28;5074529;28;20518;-65
2024/01/29 09:50:31;;;;;;;0.95;0.95;;;;;;;2.99;80.95;101824.59;5074507;28;20050;-65
2024/01/29 09:53:02;;;;;;;2.50;1.73;;;;;;;3.00;81.08;101822.16;5073880;28;20502;-68
2024/01/29 09:55:31;;;;;;;0.80;0.80;;;;;;;3.15;81.37;101819.72;5074433;28;20060;-69
2024/01/29 09:58:00;;;;;;;1.45;1.35;;;;;;;3.31;81.18;101825.00;5074300;28;20539;-66
2024/01/29 10:00:31;;;;;;;1.15;1.05;;;;;;;3.44;81.44;101821.56;5073156;28;20051;-66
2024/01/29 10:03:06;;;;;;;1.17;1.08;;;;;;;3.51;81.01;101816.97;5074343;28;20049;-69
2024/01/29 10:05:35;;;;;;;3.13;0.88;;;;;;;3.64;80.88;101811.91;5074352;28;20125;-66
2024/01/29 10:08:05;;;;;;;1.67;1.25;;;;;;;3.74;79.71;101814.19;5074169;28;20069;-69
2024/01/29 10:10:35;;;;;;;0.47;0.47;;;;;;;3.79;80.28;101802.72;5073816;28;20072;-66
2024/01/29 10:13:07;;;;;;;8.38;3.05;;;;;;;3.95;79.94;101810.47;5073894;28;20048;-68
2024/01/29 10:15:37;;;;;;;1.10;1.00;;;;;;;4.21;79.30;101818.69;5074092;28;20055;-68
2024/01/29 10:18:11;;;;;;;1.20;1.15;;;;;;;4.51;79.02;101821.34;5074046;28;20048;-69
2024/01/29 10:20:41;;;;;;;1.42;1.33;;;;;;;4.84;79.02;101806.38;5074014;28;20052;-66
2024/01/29 10:23:09;;;;;;;2.90;1.95;;;;;;;4.95;78.08;101806.19;5073960;28;20036;-69
2024/01/29 10:25:39;;;;;;;3.90;3.57;;;;;;;5.21;78.24;101793.28;5073682;28;20040;-69
2024/01/29 10:28:10;;;;;;;;;;;;;;;5.39;77.44;101786.72;5074339;28;20283;-68
2024/01/29 10:30:42;;;;;;;1.75;1.33;;;;;;;5.50;76.77;101804.13;5073617;28;20370;-69
2024/01/29 10:33:11;;;;;;;2.28;2.08;;;;;;;5.60;76.57;101802.16;5073549;28;20425;-66
2024/01/29 10:35:40;;;;;;;1.10;1.00;;;;;;;5.79;75.91;101798.94;5073797;28;20037;-67
2024/01/29 10:38:14;;;;;;;0.50;0.50;;;;;;;5.84;74.77;101794.97;5072490;28;20032;-68
2024/01/29 10:40:45;;;;;;;2.03;1.88;;;;;;;5.79;74.41;101794.75;5073790;28;20056;-69
2024/01/29 10:43:19;;;;;;;1.05;1.00;;;;;;;5.85;73.94;101787.50;5073814;28;20471;-68
2024/01/29 10:45:52;;;;;;;0.82;0.82;;;;;;;5.87;73.73;101779.97;5074078;28;20057;-66
2024/01/29 10:48:23;;;;;;;1.63;0.65;;;;;;;6.13;73.11;101774.56;5072578;28;20072;-68
2024/01/29 10:50:52;;;;;;;0.68;0.68;;;;;;;6.48;73.03;101769.59;5073804;28;20053;-68
2024/01/29 10:53:23;;;;;;;2.80;2.53;;;;;;;6.82;72.66;101761.06;5073067;28;20052;-67
2024/01/29 10:55:53;;;;;;;0.90;0.85;;;;;;;6.80;71.88;101765.19;5073780;28;20091;-69
2024/01/29 10:58:24;;;;;;;1.08;1.02;;;;;;;6.93;70.99;101752.31;5073377;28;20051;-67
2024/01/29 11:00:56;;;;;;;1.33;1.23;;;;;;;7.03;70.49;101746.84;5073920;28;20398;-67
2024/01/29 11:03:26;;;;;;;2.85;1.10;;;;;;;7.05;69.05;101750.34;5073624;28;20389;-66
2024/01/29 11:06:00;;;;;;;1.52;1.42;;;;;;;6.92;68.68;101753.09;5073241;28;20489;-67
2024/01/29 11:08:33;;;;;;;1.17;1.08;;;;;;;6.92;67.69;101740.41;5073565;28;20057;-67
2024/01/29 11:11:04;;;;;;;1.02;0.93;;;;;;;7.03;68.09;101746.84;5072378;28;20114;-68
2024/01/29 11:13:35;;;;;;;0.68;0.68;;;;;;;6.88;66.68;101748.66;5073350;28;20036;-69
2024/01/29 11:16:07;;;;;;;1.45;1.25;;;;;;;7.21;67.32;101740.06;5073318;28;20037;-68
2024/01/29 11:18:37;;;;;;;1.33;1.20;;;;;;;7.15;66.43;101740.66;5073489;28;20485;-67
2024/01/29 11:21:11;;;;;;;1.58;1.05;;;;;;;7.07;65.76;101731.84;5073389;28;20037;-66
2024/01/29 11:23:46;;;;;;;1.13;1.02;;;;;;;7.17;65.60;101734.00;5077382;28;20036;-67
2024/01/29 11:26:17;;;;;;;0.70;0.70;;;;;;;7.34;65.51;101737.31;5077298;28;20080;-69
2024/01/29 11:28:46;;;;;;;0.60;0.60;;;;;;;7.41;65.10;101734.25;5077249;28;20052;-68
2024/01/29 11:31:16;;;;;;;1.33;1.10;;;;;;;7.34;64.52;101727.16;5077481;28;20461;-68
2024/01/29 11:33:45;;;;;;;2.55;1.58;;;;;;;7.43;64.38;101737.72;5076966;28;20079;-69
2024/01/29 11:36:16;;;;;;;0.73;0.73;;;;;;;7.65;64.11;101730.25;5075506;28;20075;-67
2024/01/29 11:38:45;;;;;;;0.70;0.70;;;;;;;7.63;63.56;101726.75;5077321;28;20040;-69
2024/01/29 11:41:19;;;;;;;0.37;0.37;;;;;;;7.70;63.16;101725.34;5076960;28;20040;-68